Lukachukai, Arizona
Current Conditions -  °F | °C
As of 1:53 AM on Wednesday 28 Jan 2015 (Local Time) from KRQE Reporting Station
Broken Clouds Broken Clouds  
Wind Chill: 37°   Ceiling: 5500
Heat Index: 37°   Visibility: 10mi
Dew Point: 32°   Wind: 0mph
Humidity: 82%   Direction: NA
Pressure: 30.31"   Gusts: NA
Location:  36.42°N, 109.23°W
Report Text: KRQE 280853Z AUTO 00000KT 10SM BKN055 03/00 A3031 RMK AO2 SLP208 T00280000 53001 TSNO
Loading
Personal Weather Stations






























Interactive Weather Map New forecast layout! Learn more

10-Day Weather Forecast

Advertisements
Track Severe Weather on mobile